createdAt,value
2023-01-04T00:00:45.973Z,0.00
2023-01-04T00:01:45.945Z,0.00
2023-01-04T00:03:50.067Z,0.00
2023-01-04T00:04:49.894Z,0.00
2023-01-04T00:06:43.453Z,0.00
2023-01-04T00:07:42.991Z,0.00
2023-01-04T00:09:47.040Z,0.00
2023-01-04T00:10:47.007Z,0.00
2023-01-04T00:12:51.058Z,0.00
2023-01-04T00:13:51.050Z,0.00
2023-01-04T00:15:55.117Z,0.00
2023-01-04T00:16:55.029Z,0.00
2023-01-04T00:18:59.035Z,0.00
2023-01-04T00:19:59.020Z,0.00
2023-01-04T00:22:03.039Z,0.00
2023-01-04T00:23:03.002Z,0.00
2023-01-04T00:25:07.005Z,0.00
2023-01-04T00:26:06.969Z,0.00
2023-01-04T00:28:10.999Z,0.00
2023-01-04T00:29:10.955Z,0.00
2023-01-04T00:31:15.024Z,0.00
2023-01-04T00:32:14.939Z,0.00
2023-01-04T00:34:18.959Z,0.00
2023-01-04T00:35:44.255Z,0.00
2023-01-04T00:37:22.958Z,0.00
2023-01-04T00:38:22.880Z,0.00
2023-01-04T00:40:27.469Z,0.00
2023-01-04T00:41:56.720Z,0.00
2023-01-04T00:43:31.279Z,0.00
2023-01-04T00:44:31.057Z,0.00
2023-01-04T00:46:24.070Z,0.00
2023-01-04T00:47:23.994Z,0.00
2023-01-04T00:49:28.015Z,0.00
2023-01-04T00:50:27.969Z,0.00
2023-01-04T00:52:31.965Z,0.00
2023-01-04T00:53:31.939Z,0.00
2023-01-04T00:55:36.127Z,0.00
2023-01-04T00:56:35.911Z,0.00
2023-01-04T00:58:39.914Z,0.00
2023-01-04T00:59:39.910Z,0.00
2023-01-04T01:01:44.052Z,0.00
2023-01-04T01:02:44.097Z,0.00
2023-01-04T01:04:47.909Z,0.00
2023-01-04T01:05:47.888Z,0.00
2023-01-04T01:07:51.882Z,0.00
2023-01-04T01:08:51.866Z,0.00
2023-01-04T01:10:55.834Z,0.00
2023-01-04T01:11:55.846Z,0.00
2023-01-04T01:14:01.432Z,0.00
2023-01-04T01:15:01.228Z,0.00
2023-01-04T01:17:05.088Z,0.00
2023-01-04T01:18:05.012Z,0.00
2023-01-04T01:20:09.552Z,0.00
2023-01-04T01:21:09.542Z,0.00
2023-01-04T01:22:09.515Z,0.00
2023-01-04T01:23:09.564Z,0.00
2023-01-04T01:24:09.494Z,0.00
2023-01-04T01:25:09.494Z,0.00
2023-01-04T01:26:09.474Z,0.00
2023-01-04T01:27:09.462Z,0.00
2023-01-04T01:28:09.512Z,0.00
2023-01-04T01:29:09.448Z,0.00
2023-01-04T01:30:09.451Z,0.00
2023-01-04T01:31:09.453Z,0.00
2023-01-04T01:32:09.423Z,0.00
2023-01-04T01:33:09.420Z,0.00
2023-01-04T01:34:09.425Z,0.00
2023-01-04T01:35:09.401Z,0.00
2023-01-04T01:36:09.395Z,0.00
2023-01-04T01:37:09.386Z,0.00
2023-01-04T01:38:09.443Z,0.00
2023-01-04T01:39:09.479Z,0.00
2023-01-04T01:40:09.361Z,0.00
2023-01-04T01:41:09.356Z,0.00
2023-01-04T01:42:09.362Z,0.00
2023-01-04T01:43:09.337Z,0.00
2023-01-04T01:44:09.333Z,0.00
2023-01-04T01:45:09.326Z,0.00
2023-01-04T01:46:09.374Z,0.00
2023-01-04T01:47:09.307Z,0.00
2023-01-04T01:48:09.308Z,0.00
2023-01-04T01:49:09.309Z,0.00
2023-01-04T01:50:09.291Z,0.00
2023-01-04T01:51:09.283Z,0.00
2023-01-04T01:52:09.276Z,0.00
2023-01-04T01:53:09.266Z,0.00
2023-01-04T01:54:09.279Z,0.00
2023-01-04T01:55:09.280Z,0.00
2023-01-04T01:56:09.253Z,0.00
2023-01-04T01:57:09.240Z,0.00
2023-01-04T01:58:09.227Z,0.00
2023-01-04T01:59:09.227Z,0.00
2023-01-04T02:00:09.214Z,0.00
2023-01-04T02:01:09.255Z,0.00
2023-01-04T02:02:09.407Z,0.00
2023-01-04T02:03:09.406Z,0.00
2023-01-04T02:04:09.291Z,0.00
2023-01-04T02:05:09.172Z,0.00
2023-01-04T02:06:09.175Z,0.00
2023-01-04T02:07:09.167Z,0.00
2023-01-04T02:08:09.155Z,0.00
2023-01-04T02:09:09.147Z,0.00
2023-01-04T02:10:09.169Z,0.00
2023-01-04T02:11:09.137Z,0.00
2023-01-04T02:12:09.118Z,0.00
2023-01-04T02:13:09.113Z,0.00
2023-01-04T02:14:09.129Z,0.00
2023-01-04T02:15:09.125Z,0.00
2023-01-04T02:16:09.189Z,0.00
2023-01-04T02:17:09.087Z,0.00
2023-01-04T02:18:09.098Z,0.00
2023-01-04T02:19:09.071Z,0.00
2023-01-04T02:20:09.067Z,0.00
2023-01-04T02:21:09.058Z,0.00
2023-01-04T02:22:09.055Z,0.00
2023-01-04T02:23:09.046Z,0.00
2023-01-04T02:24:09.035Z,0.00
2023-01-04T02:25:09.024Z,0.00
2023-01-04T02:26:09.019Z,0.00
2023-01-04T02:27:09.011Z,0.00
2023-01-04T02:28:09.001Z,0.00
2023-01-04T02:29:09.018Z,0.00
2023-01-04T02:30:09.009Z,0.00
2023-01-04T02:31:09.048Z,0.00
2023-01-04T02:32:08.969Z,0.00
2023-01-04T02:33:08.978Z,0.00
2023-01-04T02:34:08.961Z,0.00
2023-01-04T02:35:08.950Z,0.00
2023-01-04T02:36:08.944Z,0.00
2023-01-04T02:37:08.926Z,0.00
2023-01-04T02:38:08.937Z,0.00
2023-01-04T02:39:08.917Z,0.00
2023-01-04T02:40:08.955Z,0.00
2023-01-04T02:41:08.904Z,0.00
2023-01-04T02:42:08.898Z,0.00
2023-01-04T02:43:15.567Z,0.00
2023-01-04T02:44:08.873Z,0.00
2023-01-04T02:45:08.884Z,0.00
2023-01-04T02:46:08.921Z,0.00
2023-01-04T02:47:08.948Z,0.00
2023-01-04T02:48:08.862Z,0.00
2023-01-04T02:49:08.837Z,0.00
2023-01-04T02:50:08.871Z,0.00
2023-01-04T02:51:08.826Z,0.00
2023-01-04T02:52:08.836Z,0.00
2023-01-04T02:53:08.832Z,0.00
2023-01-04T02:54:08.828Z,0.00
2023-01-04T02:55:08.789Z,0.00
2023-01-04T02:56:08.792Z,0.00
2023-01-04T02:57:08.794Z,0.00
2023-01-04T02:58:08.779Z,0.00
2023-01-04T02:59:08.772Z,0.00
2023-01-04T03:00:08.799Z,0.00
2023-01-04T03:01:08.790Z,0.00
2023-01-04T03:02:08.840Z,0.00
2023-01-04T03:03:08.872Z,0.00
2023-01-04T03:04:08.817Z,0.00
2023-01-04T03:05:08.715Z,0.00
2023-01-04T03:06:08.706Z,0.00
2023-01-04T03:07:08.694Z,0.00
2023-01-04T03:08:08.743Z,0.00
2023-01-04T03:09:08.683Z,0.00
2023-01-04T03:10:08.681Z,0.00
2023-01-04T03:11:08.681Z,0.00
2023-01-04T03:12:08.683Z,0.00
2023-01-04T03:13:08.657Z,0.00
2023-01-04T03:14:30.918Z,0.00
2023-01-04T03:15:08.636Z,0.00
2023-01-04T03:16:08.720Z,0.00
2023-01-04T03:17:08.629Z,0.00
2023-01-04T03:18:08.622Z,0.00
2023-01-04T03:19:08.611Z,0.00
2023-01-04T03:20:08.605Z,0.00
2023-01-04T03:21:08.594Z,0.00
2023-01-04T03:22:08.582Z,0.00
2023-01-04T03:23:08.574Z,0.00
2023-01-04T03:24:08.583Z,0.00
2023-01-04T03:25:08.558Z,0.00
2023-01-04T03:26:08.555Z,0.00
2023-01-04T03:27:08.554Z,0.00
2023-01-04T03:28:08.555Z,0.00
2023-01-04T03:29:08.524Z,0.00
2023-01-04T03:30:08.530Z,0.00
2023-01-04T03:31:08.555Z,0.00
2023-01-04T03:32:08.515Z,0.00
2023-01-04T03:33:08.494Z,0.00
2023-01-04T03:34:08.494Z,0.00
2023-01-04T03:35:08.496Z,0.00
2023-01-04T03:36:08.479Z,0.00
2023-01-04T03:37:08.473Z,0.00
2023-01-04T03:38:08.460Z,0.00
2023-01-04T03:39:08.460Z,0.00
2023-01-04T03:40:08.474Z,0.00
2023-01-04T03:41:08.440Z,0.00
2023-01-04T03:42:08.442Z,0.00
2023-01-04T03:43:08.420Z,0.00
2023-01-04T03:44:08.432Z,0.00
2023-01-04T03:45:10.489Z,0.00
2023-01-04T03:46:08.404Z,0.00
2023-01-04T03:47:08.507Z,0.00
2023-01-04T03:48:08.380Z,0.00
2023-01-04T03:49:08.382Z,0.00
2023-01-04T03:50:08.377Z,0.00
2023-01-04T03:51:08.371Z,0.00
2023-01-04T03:52:08.344Z,0.00
2023-01-04T03:53:08.345Z,0.00
2023-01-04T03:54:08.334Z,0.00
2023-01-04T03:55:08.325Z,0.00
2023-01-04T03:56:08.337Z,0.00
2023-01-04T03:57:08.305Z,0.00
2023-01-04T03:58:08.311Z,0.00
2023-01-04T03:59:08.290Z,0.00
2023-01-04T04:00:08.289Z,0.00
2023-01-04T04:01:08.457Z,0.00
2023-01-04T04:02:08.317Z,0.00
2023-01-04T04:03:08.329Z,0.00
2023-01-04T04:04:08.433Z,0.00
2023-01-04T04:05:08.260Z,0.00
2023-01-04T04:06:08.235Z,0.00
2023-01-04T04:07:08.241Z,0.00
2023-01-04T04:08:08.221Z,0.00
2023-01-04T04:09:08.222Z,0.00
2023-01-04T04:10:08.221Z,0.00
2023-01-04T04:11:08.207Z,0.00
2023-01-04T04:12:08.190Z,0.00
2023-01-04T04:13:08.203Z,0.00
2023-01-04T04:14:08.174Z,0.00
2023-01-04T04:15:08.171Z,0.00
2023-01-04T04:16:08.185Z,0.00
2023-01-04T04:17:08.169Z,0.00
2023-01-04T04:18:08.153Z,0.00
2023-01-04T04:19:09.175Z,0.00
2023-01-04T04:20:08.125Z,0.00
2023-01-04T04:21:08.148Z,0.00
2023-01-04T04:22:08.110Z,0.00
2023-01-04T04:23:08.116Z,0.00
2023-01-04T04:24:08.140Z,0.00
2023-01-04T04:25:08.109Z,0.00
2023-01-04T04:26:08.091Z,0.00
2023-01-04T04:27:08.088Z,0.00
2023-01-04T04:28:08.101Z,0.00
2023-01-04T04:29:08.063Z,0.00
2023-01-04T04:30:08.061Z,0.00
2023-01-04T04:31:08.058Z,0.00
2023-01-04T04:32:08.074Z,0.00
2023-01-04T04:33:08.046Z,0.00
2023-01-04T04:34:08.020Z,0.00
2023-01-04T04:35:08.065Z,0.00
2023-01-04T04:36:08.011Z,0.00
2023-01-04T04:37:08.001Z,0.00
2023-01-04T04:38:07.994Z,0.00
2023-01-04T04:39:07.987Z,0.00
2023-01-04T04:40:07.989Z,0.00
2023-01-04T04:41:07.976Z,0.00
2023-01-04T04:42:07.972Z,0.00
2023-01-04T04:43:07.950Z,0.00
2023-01-04T04:44:07.945Z,0.00
2023-01-04T04:45:07.939Z,0.00
2023-01-04T04:46:08.024Z,0.00
2023-01-04T04:47:07.925Z,0.00
2023-01-04T04:48:07.911Z,0.00
2023-01-04T04:49:07.915Z,0.00
2023-01-04T04:50:07.893Z,0.00
2023-01-04T04:51:07.910Z,0.00
2023-01-04T04:52:07.880Z,0.00
2023-01-04T04:53:07.886Z,0.00
2023-01-04T04:54:07.880Z,0.00
2023-01-04T04:55:07.856Z,0.00
2023-01-04T04:56:07.858Z,0.00
2023-01-04T04:57:07.838Z,0.00
2023-01-04T04:58:07.840Z,0.00
2023-01-04T04:59:07.854Z,0.00
2023-01-04T05:00:07.819Z,0.00
2023-01-04T05:01:07.954Z,0.00
2023-01-04T05:02:08.196Z,0.00
2023-01-04T05:03:08.014Z,0.00
2023-01-04T05:04:07.792Z,0.00
2023-01-04T05:05:07.800Z,0.00
2023-01-04T05:06:07.766Z,0.00
2023-01-04T05:07:12.427Z,0.00
2023-01-04T05:08:07.781Z,0.00
2023-01-04T05:09:07.756Z,0.00
2023-01-04T05:10:07.741Z,0.00
2023-01-04T05:11:07.751Z,0.00
2023-01-04T05:12:07.736Z,0.00
2023-01-04T05:13:07.736Z,0.00
2023-01-04T05:14:07.713Z,0.00
2023-01-04T05:15:07.725Z,0.00
2023-01-04T05:16:07.768Z,0.00
2023-01-04T05:17:07.774Z,0.00
2023-01-04T05:18:07.674Z,0.00
2023-01-04T05:19:07.678Z,0.00
2023-01-04T05:20:07.661Z,0.00
2023-01-04T05:21:07.671Z,0.00
2023-01-04T05:22:07.651Z,0.00
2023-01-04T05:23:07.640Z,0.00
2023-01-04T05:24:07.623Z,0.00
2023-01-04T05:25:07.644Z,0.00
2023-01-04T05:26:14.800Z,0.00
2023-01-04T05:28:11.641Z,0.00
2023-01-04T05:29:11.635Z,0.00
2023-01-04T05:31:15.636Z,0.00
2023-01-04T05:32:15.613Z,0.00
2023-01-04T05:34:08.694Z,0.00
2023-01-04T05:35:08.665Z,0.00
2023-01-04T05:37:01.597Z,0.00
2023-01-04T05:38:01.605Z,0.00
2023-01-04T05:40:05.638Z,0.00
2023-01-04T05:41:05.567Z,0.00
2023-01-04T05:43:10.548Z,0.00
2023-01-04T05:44:10.515Z,0.00
2023-01-04T05:46:14.586Z,0.00
2023-01-04T05:47:15.323Z,0.00
2023-01-04T05:49:19.032Z,0.00
2023-01-04T05:50:18.996Z,0.00
2023-01-04T05:51:19.002Z,0.00
2023-01-04T05:52:18.982Z,0.00
2023-01-04T05:53:19.048Z,0.00
2023-01-04T05:54:21.463Z,0.00
2023-01-04T05:55:18.965Z,0.00
2023-01-04T05:56:18.956Z,0.00
2023-01-04T05:57:18.976Z,0.00
2023-01-04T05:58:18.930Z,0.00
2023-01-04T05:59:18.949Z,0.00
2023-01-04T06:00:18.939Z,0.00
2023-01-04T06:01:18.957Z,0.00
2023-01-04T06:02:19.083Z,0.00
2023-01-04T06:03:19.133Z,0.00
2023-01-04T06:04:18.887Z,0.00
2023-01-04T06:05:18.881Z,0.00
2023-01-04T06:06:18.889Z,0.00
2023-01-04T06:07:18.866Z,0.00
2023-01-04T06:08:18.853Z,0.00
2023-01-04T06:09:18.848Z,0.00
2023-01-04T06:10:18.859Z,0.00
2023-01-04T06:11:24.017Z,0.00
2023-01-04T06:12:18.853Z,0.00
2023-01-04T06:13:18.822Z,0.00
2023-01-04T06:14:18.808Z,0.00
2023-01-04T06:15:18.810Z,0.00
2023-01-04T06:16:18.857Z,0.00
2023-01-04T06:17:18.910Z,0.00
2023-01-04T06:18:18.837Z,0.00
2023-01-04T06:19:18.823Z,0.00
2023-01-04T06:20:18.793Z,0.00
2023-01-04T06:21:18.811Z,0.00
2023-01-04T06:22:18.769Z,0.00
2023-01-04T06:23:18.744Z,0.00
2023-01-04T06:24:18.747Z,0.00
2023-01-04T06:25:18.735Z,0.00
2023-01-04T06:26:18.737Z,4.00
2023-01-04T06:27:18.744Z,0.00
2023-01-04T06:28:18.701Z,4.00
2023-01-04T06:29:18.700Z,4.00
2023-01-04T06:30:18.688Z,4.00
2023-01-04T06:31:18.762Z,0.00
2023-01-04T06:32:18.679Z,4.00
2023-01-04T06:33:18.676Z,4.00
2023-01-04T06:34:18.670Z,4.00
2023-01-04T06:35:18.657Z,0.00
2023-01-04T06:36:19.606Z,0.00
2023-01-04T06:37:18.649Z,0.00
2023-01-04T06:38:18.624Z,0.00
2023-01-04T06:39:18.669Z,0.00
2023-01-04T06:40:18.617Z,0.00
2023-01-04T06:41:18.624Z,0.00
2023-01-04T06:42:18.598Z,4.00
2023-01-04T06:43:18.637Z,4.00
2023-01-04T06:44:18.634Z,4.00
2023-01-04T06:45:18.587Z,0.00
2023-01-04T06:46:18.646Z,4.00
2023-01-04T06:47:18.574Z,4.00
2023-01-04T06:48:18.721Z,4.00
2023-01-04T06:49:18.573Z,4.00
2023-01-04T06:50:18.542Z,4.00
2023-01-04T06:51:18.535Z,4.00
2023-01-04T06:52:18.555Z,4.00
2023-01-04T06:53:18.618Z,8.00
2023-01-04T06:54:18.526Z,4.00
2023-01-04T06:55:18.517Z,8.00
2023-01-04T06:56:18.520Z,4.00
2023-01-04T06:57:18.492Z,8.00
2023-01-04T06:58:18.485Z,8.00
2023-01-04T06:59:18.513Z,8.00
2023-01-04T07:00:18.468Z,8.00
2023-01-04T07:01:18.536Z,12.00
2023-01-04T07:02:18.632Z,16.00
2023-01-04T07:03:18.574Z,16.00
2023-01-04T07:04:18.468Z,20.00
2023-01-04T07:05:18.431Z,24.00
2023-01-04T07:06:18.421Z,24.00
2023-01-04T07:07:18.424Z,32.00
2023-01-04T07:08:18.416Z,36.00
2023-01-04T07:09:18.413Z,40.00
2023-01-04T07:10:18.396Z,44.00
2023-01-04T07:11:18.393Z,52.00
2023-01-04T07:12:18.400Z,60.00
2023-01-04T07:13:18.380Z,72.00
2023-01-04T07:14:18.371Z,84.00
2023-01-04T07:15:40.212Z,100.00
2023-01-04T07:16:18.370Z,108.00
2023-01-04T07:17:18.336Z,108.00
2023-01-04T07:18:18.331Z,112.00
2023-01-04T07:19:18.340Z,108.00
2023-01-04T07:20:18.324Z,92.00
2023-01-04T07:21:18.316Z,76.00
2023-01-04T07:22:18.301Z,72.00
2023-01-04T07:23:18.298Z,84.00
2023-01-04T07:24:18.280Z,88.00
2023-01-04T07:25:18.280Z,76.00
2023-01-04T07:26:18.275Z,52.00
2023-01-04T07:27:18.271Z,40.00
2023-01-04T07:28:18.259Z,40.00
2023-01-04T07:29:18.305Z,36.00
2023-01-04T07:30:18.298Z,36.00
2023-01-04T07:31:18.354Z,36.00
2023-01-04T07:32:18.271Z,36.00
2023-01-04T07:33:18.326Z,44.00
2023-01-04T07:34:18.367Z,48.00
2023-01-04T07:35:18.209Z,52.00
2023-01-04T07:36:18.200Z,56.00
2023-01-04T07:37:18.191Z,60.00
2023-01-04T07:38:18.195Z,60.00
2023-01-04T07:39:18.193Z,64.00
2023-01-04T07:40:18.241Z,68.00
2023-01-04T07:41:18.174Z,72.00
2023-01-04T07:42:18.181Z,72.00
2023-01-04T07:43:21.519Z,72.00
2023-01-04T07:44:18.223Z,76.00
2023-01-04T07:45:18.148Z,80.00
2023-01-04T07:46:18.215Z,80.00
2023-01-04T07:47:18.145Z,88.00
2023-01-04T07:48:18.115Z,88.00
2023-01-04T07:49:18.536Z,92.00
2023-01-04T07:50:18.105Z,84.00
2023-01-04T07:51:18.098Z,80.00
2023-01-04T07:52:18.104Z,80.00
2023-01-04T07:53:18.278Z,76.00
2023-01-04T07:54:18.155Z,72.00
2023-01-04T07:55:18.088Z,80.00
2023-01-04T07:56:19.067Z,84.00
2023-01-04T07:57:18.061Z,84.00
2023-01-04T07:58:18.048Z,88.00
2023-01-04T07:59:18.053Z,88.00
2023-01-04T08:00:18.034Z,88.00
2023-01-04T08:01:18.151Z,92.00
2023-01-04T08:02:18.132Z,96.00
2023-01-04T08:03:18.033Z,92.00
2023-01-04T08:04:18.123Z,88.00
2023-01-04T08:05:18.141Z,88.00
2023-01-04T08:06:17.986Z,92.00
2023-01-04T08:07:17.975Z,92.00
2023-01-04T08:08:17.969Z,100.00
2023-01-04T08:09:17.966Z,108.00
2023-01-04T08:10:17.965Z,116.00
2023-01-04T08:11:17.959Z,120.00
2023-01-04T08:12:17.947Z,124.00
2023-01-04T08:13:17.939Z,128.00
2023-01-04T08:14:17.935Z,132.00
2023-01-04T08:15:17.918Z,144.00
2023-01-04T08:16:17.983Z,152.00
2023-01-04T08:17:17.910Z,172.00
2023-01-04T08:18:20.494Z,180.00
2023-01-04T08:19:17.897Z,180.00
2023-01-04T08:20:17.907Z,164.00
2023-01-04T08:21:17.883Z,152.00
2023-01-04T08:22:17.875Z,148.00
2023-01-04T08:23:17.867Z,148.00
2023-01-04T08:24:17.871Z,144.00
2023-01-04T08:25:17.846Z,152.00
2023-01-04T08:26:17.847Z,160.00
2023-01-04T08:27:17.835Z,168.00
2023-01-04T08:28:17.849Z,180.00
2023-01-04T08:29:17.820Z,200.00
2023-01-04T08:30:17.821Z,212.00
2023-01-04T08:31:17.851Z,200.00
2023-01-04T08:32:17.832Z,212.00
2023-01-04T08:33:17.785Z,228.00
2023-01-04T08:34:17.792Z,244.00
2023-01-04T08:35:17.890Z,256.00
2023-01-04T08:36:24.214Z,268.00
2023-01-04T08:37:17.779Z,280.00
2023-01-04T08:38:57.634Z,284.00
2023-01-04T08:39:17.751Z,280.00
2023-01-04T08:40:17.756Z,284.00
2023-01-04T08:41:47.158Z,284.00
2023-01-04T08:42:25.166Z,284.00
2023-01-04T08:43:17.742Z,288.00
2023-01-04T08:44:17.706Z,296.00
2023-01-04T08:45:17.717Z,316.00
2023-01-04T08:46:17.765Z,352.00
2023-01-04T08:47:17.706Z,380.00
2023-01-04T08:48:24.311Z,404.00
2023-01-04T08:49:17.679Z,416.00
2023-01-04T08:50:17.732Z,372.00
2023-01-04T08:51:17.780Z,344.00
2023-01-04T08:52:17.660Z,316.00
2023-01-04T08:53:17.638Z,320.00
2023-01-04T08:54:17.677Z,324.00
2023-01-04T08:55:22.942Z,296.00
2023-01-04T08:56:17.629Z,268.00
2023-01-04T08:57:17.619Z,252.00
2023-01-04T08:58:17.643Z,248.00
2023-01-04T08:59:17.610Z,252.00
2023-01-04T09:00:17.755Z,244.00
2023-01-04T09:01:17.969Z,204.00
2023-01-04T09:02:17.723Z,164.00
2023-01-04T09:03:17.630Z,176.00
2023-01-04T09:04:17.633Z,172.00
2023-01-04T09:05:22.754Z,136.00
2023-01-04T09:06:17.551Z,132.00
2023-01-04T09:07:17.604Z,132.00
2023-01-04T09:08:17.537Z,136.00
2023-01-04T09:09:17.545Z,124.00
2023-01-04T09:10:17.539Z,136.00
2023-01-04T09:11:17.548Z,148.00
2023-01-04T09:12:17.538Z,180.00
2023-01-04T09:13:17.502Z,192.00
2023-01-04T09:14:17.537Z,188.00
2023-01-04T09:15:17.484Z,228.00
2023-01-04T09:16:17.545Z,240.00
2023-01-04T09:17:17.473Z,248.00
2023-01-04T09:18:33.330Z,272.00
2023-01-04T09:19:21.882Z,248.00
2023-01-04T09:20:17.448Z,312.00
2023-01-04T09:21:17.458Z,324.00
2023-01-04T09:22:17.521Z,264.00
2023-01-04T09:23:17.481Z,272.00
2023-01-04T09:24:17.484Z,356.00
2023-01-04T09:25:17.420Z,304.00
2023-01-04T09:26:17.436Z,324.00
2023-01-04T09:27:17.397Z,312.00
2023-01-04T09:28:17.397Z,332.00
2023-01-04T09:29:17.382Z,364.00
2023-01-04T09:30:17.387Z,316.00
2023-01-04T09:31:17.409Z,364.00
2023-01-04T09:32:17.383Z,452.00
2023-01-04T09:33:17.378Z,460.00
2023-01-04T09:34:18.197Z,512.00
2023-01-04T09:35:17.358Z,536.00
2023-01-04T09:36:17.376Z,532.00
2023-01-04T09:37:17.333Z,476.00
2023-01-04T09:38:17.323Z,436.00
2023-01-04T09:39:22.537Z,516.00
2023-01-04T09:40:17.478Z,476.00
2023-01-04T09:41:17.304Z,556.00
2023-01-04T09:42:17.323Z,632.00
2023-01-04T09:43:20.354Z,504.00
2023-01-04T09:44:17.295Z,448.00
2023-01-04T09:45:25.459Z,420.00
2023-01-04T09:46:17.308Z,416.00
2023-01-04T09:47:17.256Z,472.00
2023-01-04T09:48:23.336Z,600.00
2023-01-04T09:49:17.247Z,592.00
2023-01-04T09:50:17.239Z,512.00
2023-01-04T09:51:17.288Z,408.00
2023-01-04T09:52:17.226Z,348.00
2023-01-04T09:53:17.231Z,464.00
2023-01-04T09:54:17.209Z,416.00
2023-01-04T09:55:38.216Z,536.00
2023-01-04T09:56:17.215Z,488.00
2023-01-04T09:57:17.187Z,532.00
2023-01-04T09:58:17.184Z,600.00
2023-01-04T09:59:17.194Z,576.00
2023-01-04T10:00:17.174Z,532.00
2023-01-04T10:01:17.391Z,660.00
2023-01-04T10:02:17.419Z,628.00
2023-01-04T10:03:17.276Z,612.00
2023-01-04T10:04:17.148Z,636.00
2023-01-04T10:05:17.125Z,676.00
2023-01-04T10:06:17.125Z,556.00
2023-01-04T10:07:17.124Z,652.00
2023-01-04T10:08:17.111Z,608.00
2023-01-04T10:09:17.196Z,484.00
2023-01-04T10:10:17.106Z,560.00
2023-01-04T10:11:17.145Z,596.00
2023-01-04T10:12:17.079Z,652.00
2023-01-04T10:13:17.069Z,624.00
2023-01-04T10:14:17.080Z,472.00
2023-01-04T10:15:17.062Z,412.00
2023-01-04T10:16:17.669Z,416.00
2023-01-04T10:17:28.162Z,384.00
2023-01-04T10:20:33.653Z,376.00
2023-01-04T10:21:17.100Z,300.00
2023-01-04T10:21:29.973Z,256.00
2023-01-04T10:22:17.012Z,288.00
2023-01-04T10:23:17.018Z,324.00
2023-01-04T10:24:17.035Z,348.00
2023-01-04T10:25:16.985Z,356.00
2023-01-04T10:26:16.984Z,408.00
2023-01-04T10:27:16.989Z,364.00
2023-01-04T10:28:16.975Z,360.00
2023-01-04T10:29:16.972Z,372.00
2023-01-04T10:30:16.977Z,352.00
2023-01-04T10:31:39.308Z,384.00
2023-01-04T10:32:16.997Z,396.00
2023-01-04T10:33:16.959Z,408.00
2023-01-04T10:34:19.068Z,380.00
2023-01-04T10:35:16.937Z,360.00
2023-01-04T10:36:16.923Z,348.00
2023-01-04T10:37:16.923Z,344.00
2023-01-04T10:38:16.901Z,360.00
2023-01-04T10:39:16.895Z,340.00
2023-01-04T10:40:16.886Z,320.00
2023-01-04T10:41:16.881Z,316.00
2023-01-04T10:42:16.895Z,312.00
2023-01-04T10:43:16.888Z,300.00
2023-01-04T10:44:16.869Z,300.00
2023-01-04T10:45:16.853Z,292.00
2023-01-04T10:46:16.946Z,296.00
2023-01-04T10:47:16.907Z,308.00
2023-01-04T10:48:16.924Z,320.00
2023-01-04T10:49:16.830Z,300.00
2023-01-04T10:50:16.930Z,276.00
2023-01-04T10:51:16.810Z,276.00
2023-01-04T10:52:16.811Z,272.00
2023-01-04T10:53:16.799Z,276.00
2023-01-04T10:54:16.792Z,276.00
2023-01-04T10:55:16.810Z,264.00
2023-01-04T10:56:24.589Z,280.00
2023-01-04T10:57:16.778Z,292.00
2023-01-04T10:58:16.766Z,324.00
2023-01-04T10:59:16.767Z,312.00
2023-01-04T11:00:16.794Z,304.00
2023-01-04T11:01:16.822Z,304.00
2023-01-04T11:02:16.861Z,304.00
2023-01-04T11:03:16.917Z,320.00
2023-01-04T11:04:16.735Z,348.00
2023-01-04T11:05:16.730Z,348.00
2023-01-04T11:06:16.745Z,356.00
2023-01-04T11:07:16.706Z,360.00
2023-01-04T11:08:16.697Z,372.00
2023-01-04T11:09:22.783Z,388.00
2023-01-04T11:10:16.717Z,404.00
2023-01-04T11:11:16.669Z,428.00
2023-01-04T11:12:16.675Z,440.00
2023-01-04T11:13:16.661Z,448.00
2023-01-04T11:14:16.674Z,456.00
2023-01-04T11:15:16.654Z,468.00
2023-01-04T11:16:16.724Z,480.00
2023-01-04T11:17:16.635Z,480.00
2023-01-04T11:18:16.628Z,468.00
2023-01-04T11:19:16.616Z,472.00
2023-01-04T11:20:16.613Z,500.00
2023-01-04T11:21:16.600Z,512.00
2023-01-04T11:22:16.602Z,508.00
2023-01-04T11:23:16.700Z,524.00
2023-01-04T11:24:32.074Z,512.00
2023-01-04T11:26:16.624Z,436.00
2023-01-04T11:27:17.494Z,412.00
2023-01-04T11:28:16.564Z,396.00
2023-01-04T11:29:16.555Z,372.00
2023-01-04T11:30:16.555Z,380.00
2023-01-04T11:31:16.569Z,444.00
2023-01-04T11:32:16.696Z,496.00
2023-01-04T11:33:16.527Z,560.00
2023-01-04T11:34:16.519Z,652.00
2023-01-04T11:35:16.514Z,712.00
2023-01-04T11:36:16.512Z,780.00
2023-01-04T11:37:16.503Z,684.00
2023-01-04T11:38:16.541Z,660.00
2023-01-04T11:39:16.491Z,636.00
2023-01-04T11:40:16.500Z,660.00
2023-01-04T11:41:16.483Z,644.00
2023-01-04T11:42:16.527Z,608.00
2023-01-04T11:43:16.469Z,580.00
2023-01-04T11:44:16.446Z,540.00
2023-01-04T11:45:16.469Z,504.00
2023-01-04T11:46:16.474Z,464.00
2023-01-04T11:47:16.434Z,444.00
2023-01-04T11:48:16.432Z,400.00
2023-01-04T11:49:16.413Z,384.00
2023-01-04T11:50:16.408Z,400.00
2023-01-04T11:51:17.319Z,396.00
2023-01-04T11:52:16.407Z,432.00
2023-01-04T11:53:16.389Z,468.00
2023-01-04T11:54:16.387Z,500.00
2023-01-04T11:55:16.386Z,472.00
2023-01-04T11:56:16.427Z,404.00
2023-01-04T11:57:16.366Z,412.00
2023-01-04T11:58:16.355Z,412.00
2023-01-04T11:59:24.575Z,456.00
2023-01-04T12:00:16.389Z,508.00
2023-01-04T12:01:16.397Z,448.00
2023-01-04T12:02:34.873Z,416.00
2023-01-04T12:03:16.380Z,384.00
2023-01-04T12:04:16.313Z,376.00
2023-01-04T12:05:16.322Z,368.00
2023-01-04T12:06:16.307Z,432.00
2023-01-04T12:07:16.312Z,448.00
2023-01-04T12:08:16.294Z,440.00
2023-01-04T12:09:16.358Z,440.00
2023-01-04T12:10:16.282Z,424.00
2023-01-04T12:11:16.279Z,420.00
2023-01-04T12:12:16.268Z,420.00
2023-01-04T12:13:16.268Z,472.00
2023-01-04T12:14:16.249Z,512.00
2023-01-04T12:15:16.256Z,508.00
2023-01-04T12:16:16.244Z,524.00
2023-01-04T12:17:16.245Z,512.00
2023-01-04T12:18:16.237Z,508.00
2023-01-04T12:19:16.273Z,472.00
2023-01-04T12:20:23.412Z,452.00
2023-01-04T12:22:20.735Z,460.00
2023-01-04T12:23:20.687Z,484.00
2023-01-04T12:24:20.697Z,496.00
2023-01-04T12:25:20.692Z,508.00
2023-01-04T12:26:20.679Z,496.00
2023-01-04T12:27:20.687Z,488.00
2023-01-04T12:28:22.789Z,484.00
2023-01-04T12:29:20.660Z,544.00
2023-01-04T12:30:20.648Z,624.00
2023-01-04T12:31:21.483Z,560.00
2023-01-04T12:32:20.646Z,540.00
2023-01-04T12:33:20.651Z,492.00
2023-01-04T12:34:20.621Z,428.00
2023-01-04T12:35:20.620Z,424.00
2023-01-04T12:36:20.644Z,412.00
2023-01-04T12:37:20.603Z,404.00
2023-01-04T12:38:20.591Z,504.00
2023-01-04T12:39:20.591Z,568.00
2023-01-04T12:40:20.579Z,556.00
2023-01-04T12:41:20.603Z,600.00
2023-01-04T12:42:20.588Z,648.00
2023-01-04T12:43:20.570Z,624.00
2023-01-04T12:44:20.564Z,600.00
2023-01-04T12:45:20.563Z,564.00
2023-01-04T12:46:20.570Z,444.00
2023-01-04T12:47:20.546Z,416.00
2023-01-04T12:48:20.526Z,396.00
2023-01-04T12:49:20.535Z,408.00
2023-01-04T12:50:20.526Z,400.00
2023-01-04T12:51:34.503Z,388.00
2023-01-04T12:52:48.367Z,400.00
2023-01-04T12:53:30.093Z,324.00
2023-01-04T12:54:20.507Z,296.00
2023-01-04T12:55:20.494Z,300.00
2023-01-04T12:56:20.503Z,272.00
2023-01-04T12:57:20.482Z,224.00
2023-01-04T12:58:28.289Z,256.00
2023-01-04T12:59:25.549Z,252.00
2023-01-04T13:00:20.514Z,224.00
2023-01-04T13:01:20.634Z,236.00
2023-01-04T13:02:20.632Z,200.00
2023-01-04T13:03:20.485Z,252.00
2023-01-04T13:04:20.438Z,240.00
2023-01-04T13:05:55.454Z,216.00
2023-01-04T13:06:20.443Z,200.00
2023-01-04T13:07:20.501Z,240.00
2023-01-04T13:08:20.417Z,224.00
2023-01-04T13:09:23.985Z,204.00
2023-01-04T13:10:20.544Z,220.00
2023-01-04T13:11:20.408Z,224.00
2023-01-04T13:12:20.392Z,244.00
2023-01-04T13:13:20.390Z,292.00
2023-01-04T13:14:20.409Z,332.00
2023-01-04T13:15:20.366Z,348.00
2023-01-04T13:16:20.391Z,372.00
2023-01-04T13:17:20.473Z,384.00
2023-01-04T13:18:20.342Z,392.00
2023-01-04T13:19:20.360Z,432.00
2023-01-04T13:20:20.364Z,444.00
2023-01-04T13:21:20.336Z,516.00
2023-01-04T13:22:26.665Z,512.00
2023-01-04T13:23:20.343Z,540.00
2023-01-04T13:24:20.308Z,480.00
2023-01-04T13:25:20.323Z,468.00
2023-01-04T13:26:20.338Z,456.00
2023-01-04T13:27:20.297Z,440.00
2023-01-04T13:28:20.297Z,452.00
2023-01-04T13:29:20.269Z,392.00
2023-01-04T13:30:20.289Z,312.00
2023-01-04T13:31:20.398Z,344.00
2023-01-04T13:32:20.286Z,344.00
2023-01-04T13:33:28.609Z,356.00